sensor_id;sensor_type;location;lat;lon;timestamp;P1;durP1;ratioP1;P2;durP2;ratioP2
19189;SDS011;9727;50.200;19.038;2023-12-20T00:01:12;8.33;;;4.10;;
19189;SDS011;9727;50.200;19.038;2023-12-20T00:03:38;6.10;;;4.00;;
19189;SDS011;9727;50.200;19.038;2023-12-20T00:06:05;6.30;;;4.10;;
19189;SDS011;9727;50.200;19.038;2023-12-20T00:08:31;8.27;;;3.70;;
19189;SDS011;9727;50.200;19.038;2023-12-20T00:10:58;6.37;;;3.87;;
19189;SDS011;9727;50.200;19.038;2023-12-20T00:13:26;5.80;;;3.67;;
19189;SDS011;9727;50.200;19.038;2023-12-20T00:15:58;6.07;;;3.73;;
19189;SDS011;9727;50.200;19.038;2023-12-20T00:18:25;6.57;;;3.77;;
19189;SDS011;9727;50.200;19.038;2023-12-20T00:20:52;6.43;;;3.93;;
19189;SDS011;9727;50.200;19.038;2023-12-20T00:23:23;6.70;;;3.80;;
19189;SDS011;9727;50.200;19.038;2023-12-20T00:25:50;8.10;;;3.80;;
19189;SDS011;9727;50.200;19.038;2023-12-20T00:28:23;8.57;;;4.07;;
19189;SDS011;9727;50.200;19.038;2023-12-20T00:30:51;7.00;;;3.60;;
19189;SDS011;9727;50.200;19.038;2023-12-20T00:33:19;5.87;;;3.90;;
19189;SDS011;9727;50.200;19.038;2023-12-20T00:35:46;4.87;;;3.70;;
19189;SDS011;9727;50.200;19.038;2023-12-20T00:38:13;7.50;;;3.90;;
19189;SDS011;9727;50.200;19.038;2023-12-20T00:40:40;6.20;;;3.70;;
19189;SDS011;9727;50.200;19.038;2023-12-20T00:43:09;9.87;;;3.80;;
19189;SDS011;9727;50.200;19.038;2023-12-20T00:45:35;6.83;;;3.53;;
19189;SDS011;9727;50.200;19.038;2023-12-20T00:48:04;5.67;;;3.73;;
19189;SDS011;9727;50.200;19.038;2023-12-20T00:50:33;5.83;;;3.43;;
19189;SDS011;9727;50.200;19.038;2023-12-20T00:52:59;7.30;;;4.17;;
19189;SDS011;9727;50.200;19.038;2023-12-20T00:55:26;8.07;;;3.50;;
19189;SDS011;9727;50.200;19.038;2023-12-20T00:58:01;4.70;;;3.37;;
19189;SDS011;9727;50.200;19.038;2023-12-20T01:00:28;6.63;;;3.53;;
19189;SDS011;9727;50.200;19.038;2023-12-20T01:02:58;6.20;;;3.23;;
19189;SDS011;9727;50.200;19.038;2023-12-20T01:05:26;5.97;;;3.50;;
19189;SDS011;9727;50.200;19.038;2023-12-20T01:07:56;5.40;;;3.93;;
19189;SDS011;9727;50.200;19.038;2023-12-20T01:10:23;5.57;;;3.33;;
19189;SDS011;9727;50.200;19.038;2023-12-20T01:12:56;4.63;;;3.20;;
19189;SDS011;9727;50.200;19.038;2023-12-20T01:15:23;5.60;;;3.30;;
19189;SDS011;9727;50.200;19.038;2023-12-20T01:17:50;6.07;;;4.13;;
19189;SDS011;9727;50.200;19.038;2023-12-20T01:20:21;6.30;;;3.60;;
19189;SDS011;9727;50.200;19.038;2023-12-20T01:22:49;6.60;;;3.73;;
19189;SDS011;9727;50.200;19.038;2023-12-20T01:28:08;4.43;;;3.40;;
19189;SDS011;9727;50.200;19.038;2023-12-20T01:30:35;6.17;;;3.83;;
19189;SDS011;9727;50.200;19.038;2023-12-20T01:33:02;5.87;;;3.43;;
19189;SDS011;9727;50.200;19.038;2023-12-20T01:35:28;7.53;;;5.17;;
19189;SDS011;9727;50.200;19.038;2023-12-20T01:38:02;4.83;;;3.47;;
19189;SDS011;9727;50.200;19.038;2023-12-20T01:40:29;6.23;;;3.80;;
19189;SDS011;9727;50.200;19.038;2023-12-20T01:42:58;6.63;;;3.80;;
19189;SDS011;9727;50.200;19.038;2023-12-20T01:45:25;7.00;;;3.83;;
19189;SDS011;9727;50.200;19.038;2023-12-20T01:47:53;7.07;;;4.00;;
19189;SDS011;9727;50.200;19.038;2023-12-20T01:50:21;7.30;;;3.60;;
19189;SDS011;9727;50.200;19.038;2023-12-20T01:52:48;6.30;;;3.93;;
19189;SDS011;9727;50.200;19.038;2023-12-20T01:55:20;6.53;;;4.00;;
19189;SDS011;9727;50.200;19.038;2023-12-20T01:57:47;7.17;;;3.97;;
19189;SDS011;9727;50.200;19.038;2023-12-20T02:00:14;5.40;;;3.80;;
19189;SDS011;9727;50.200;19.038;2023-12-20T02:02:41;6.67;;;3.80;;
19189;SDS011;9727;50.200;19.038;2023-12-20T02:05:07;6.30;;;4.13;;
19189;SDS011;9727;50.200;19.038;2023-12-20T02:07:34;7.10;;;3.77;;
19189;SDS011;9727;50.200;19.038;2023-12-20T02:10:01;5.83;;;3.60;;
19189;SDS011;9727;50.200;19.038;2023-12-20T02:12:30;7.53;;;3.90;;
19189;SDS011;9727;50.200;19.038;2023-12-20T02:14:57;6.60;;;4.23;;
19189;SDS011;9727;50.200;19.038;2023-12-20T02:17:27;7.67;;;3.83;;
19189;SDS011;9727;50.200;19.038;2023-12-20T02:19:57;6.20;;;4.10;;
19189;SDS011;9727;50.200;19.038;2023-12-20T02:22:25;7.63;;;4.07;;
19189;SDS011;9727;50.200;19.038;2023-12-20T02:25:06;7.87;;;4.33;;
19189;SDS011;9727;50.200;19.038;2023-12-20T02:27:34;5.17;;;3.90;;
19189;SDS011;9727;50.200;19.038;2023-12-20T02:30:01;7.17;;;3.93;;
19189;SDS011;9727;50.200;19.038;2023-12-20T02:32:28;6.53;;;3.93;;
19189;SDS011;9727;50.200;19.038;2023-12-20T02:34:58;6.97;;;4.50;;
19189;SDS011;9727;50.200;19.038;2023-12-20T02:37:26;9.43;;;4.20;;
19189;SDS011;9727;50.200;19.038;2023-12-20T02:39:59;6.20;;;4.10;;
19189;SDS011;9727;50.200;19.038;2023-12-20T02:42:26;7.17;;;4.13;;
19189;SDS011;9727;50.200;19.038;2023-12-20T02:44:59;6.73;;;4.00;;
19189;SDS011;9727;50.200;19.038;2023-12-20T02:47:26;8.63;;;4.43;;
19189;SDS011;9727;50.200;19.038;2023-12-20T02:49:56;7.80;;;4.20;;
19189;SDS011;9727;50.200;19.038;2023-12-20T02:52:23;7.50;;;4.60;;
19189;SDS011;9727;50.200;19.038;2023-12-20T02:54:51;7.23;;;4.50;;
19189;SDS011;9727;50.200;19.038;2023-12-20T02:57:22;6.80;;;4.30;;
19189;SDS011;9727;50.200;19.038;2023-12-20T02:59:49;7.33;;;4.70;;
19189;SDS011;9727;50.200;19.038;2023-12-20T03:02:15;7.83;;;4.87;;
19189;SDS011;9727;50.200;19.038;2023-12-20T03:04:45;6.03;;;4.00;;
19189;SDS011;9727;50.200;19.038;2023-12-20T03:07:14;7.03;;;4.43;;
19189;SDS011;9727;50.200;19.038;2023-12-20T03:09:47;6.97;;;4.47;;
19189;SDS011;9727;50.200;19.038;2023-12-20T03:12:22;9.00;;;5.07;;
19189;SDS011;9727;50.200;19.038;2023-12-20T03:14:49;7.60;;;4.80;;
19189;SDS011;9727;50.200;19.038;2023-12-20T03:17:26;9.97;;;4.87;;
19189;SDS011;9727;50.200;19.038;2023-12-20T03:19:56;8.33;;;5.10;;
19189;SDS011;9727;50.200;19.038;2023-12-20T03:22:23;8.23;;;5.00;;
19189;SDS011;9727;50.200;19.038;2023-12-20T03:24:49;8.17;;;4.87;;
19189;SDS011;9727;50.200;19.038;2023-12-20T03:27:23;8.70;;;5.47;;
19189;SDS011;9727;50.200;19.038;2023-12-20T03:29:50;9.10;;;5.50;;
19189;SDS011;9727;50.200;19.038;2023-12-20T03:32:22;8.67;;;5.60;;
19189;SDS011;9727;50.200;19.038;2023-12-20T03:34:49;9.57;;;5.57;;
19189;SDS011;9727;50.200;19.038;2023-12-20T03:37:23;8.80;;;5.33;;
19189;SDS011;9727;50.200;19.038;2023-12-20T03:39:50;9.03;;;5.87;;
19189;SDS011;9727;50.200;19.038;2023-12-20T03:42:21;12.73;;;6.07;;
19189;SDS011;9727;50.200;19.038;2023-12-20T03:44:49;9.77;;;6.03;;
19189;SDS011;9727;50.200;19.038;2023-12-20T03:47:15;10.97;;;6.17;;
19189;SDS011;9727;50.200;19.038;2023-12-20T03:49:45;14.40;;;6.23;;
19189;SDS011;9727;50.200;19.038;2023-12-20T03:52:12;10.67;;;6.67;;
19189;SDS011;9727;50.200;19.038;2023-12-20T03:54:40;12.13;;;6.30;;
19189;SDS011;9727;50.200;19.038;2023-12-20T03:57:07;13.20;;;7.37;;
19189;SDS011;9727;50.200;19.038;2023-12-20T03:59:34;15.47;;;7.77;;
19189;SDS011;9727;50.200;19.038;2023-12-20T04:02:03;10.60;;;6.90;;
19189;SDS011;9727;50.200;19.038;2023-12-20T04:04:31;13.27;;;7.63;;
19189;SDS011;9727;50.200;19.038;2023-12-20T04:06:59;14.93;;;7.97;;
19189;SDS011;9727;50.200;19.038;2023-12-20T04:09:26;17.40;;;11.40;;
19189;SDS011;9727;50.200;19.038;2023-12-20T04:11:53;16.60;;;8.97;;
19189;SDS011;9727;50.200;19.038;2023-12-20T04:14:21;15.63;;;9.60;;
19189;SDS011;9727;50.200;19.038;2023-12-20T04:16:48;19.40;;;9.93;;
19189;SDS011;9727;50.200;19.038;2023-12-20T04:19:21;16.13;;;10.20;;
19189;SDS011;9727;50.200;19.038;2023-12-20T04:21:48;14.90;;;10.47;;
19189;SDS011;9727;50.200;19.038;2023-12-20T04:24:15;18.43;;;11.23;;
19189;SDS011;9727;50.200;19.038;2023-12-20T04:26:45;18.83;;;11.97;;
19189;SDS011;9727;50.200;19.038;2023-12-20T04:29:12;17.10;;;11.60;;
19189;SDS011;9727;50.200;19.038;2023-12-20T04:31:39;22.00;;;12.60;;
19189;SDS011;9727;50.200;19.038;2023-12-20T04:34:05;22.33;;;13.00;;
19189;SDS011;9727;50.200;19.038;2023-12-20T04:36:34;20.87;;;12.67;;
19189;SDS011;9727;50.200;19.038;2023-12-20T04:39:01;25.53;;;13.20;;
19189;SDS011;9727;50.200;19.038;2023-12-20T04:41:28;20.90;;;12.60;;
19189;SDS011;9727;50.200;19.038;2023-12-20T04:43:57;21.20;;;12.13;;
19189;SDS011;9727;50.200;19.038;2023-12-20T04:46:24;20.53;;;12.77;;
19189;SDS011;9727;50.200;19.038;2023-12-20T04:48:50;21.83;;;12.37;;
19189;SDS011;9727;50.200;19.038;2023-12-20T04:51:20;20.37;;;12.07;;
19189;SDS011;9727;50.200;19.038;2023-12-20T04:53:49;20.73;;;12.33;;
19189;SDS011;9727;50.200;19.038;2023-12-20T04:56:15;19.80;;;12.30;;
19189;SDS011;9727;50.200;19.038;2023-12-20T04:58:45;19.03;;;11.93;;
19189;SDS011;9727;50.200;19.038;2023-12-20T05:01:13;19.50;;;12.10;;
19189;SDS011;9727;50.200;19.038;2023-12-20T05:03:40;18.03;;;11.70;;
19189;SDS011;9727;50.200;19.038;2023-12-20T05:06:08;20.17;;;12.33;;
19189;SDS011;9727;50.200;19.038;2023-12-20T05:08:34;22.37;;;12.37;;
19189;SDS011;9727;50.200;19.038;2023-12-20T05:11:02;18.97;;;12.50;;
19189;SDS011;9727;50.200;19.038;2023-12-20T05:13:29;23.93;;;13.50;;
19189;SDS011;9727;50.200;19.038;2023-12-20T05:15:56;20.53;;;13.43;;
19189;SDS011;9727;50.200;19.038;2023-12-20T05:18:23;21.53;;;13.93;;
19189;SDS011;9727;50.200;19.038;2023-12-20T05:20:50;24.97;;;14.07;;
19189;SDS011;9727;50.200;19.038;2023-12-20T05:23:18;24.30;;;14.43;;
19189;SDS011;9727;50.200;19.038;2023-12-20T05:25:45;21.50;;;14.57;;
19189;SDS011;9727;50.200;19.038;2023-12-20T05:28:15;25.20;;;14.60;;
19189;SDS011;9727;50.200;19.038;2023-12-20T05:30:49;25.70;;;14.27;;
19189;SDS011;9727;50.200;19.038;2023-12-20T05:33:19;22.47;;;14.33;;
19189;SDS011;9727;50.200;19.038;2023-12-20T05:35:46;24.43;;;13.67;;
19189;SDS011;9727;50.200;19.038;2023-12-20T05:38:12;21.97;;;13.73;;
19189;SDS011;9727;50.200;19.038;2023-12-20T05:40:39;21.67;;;12.87;;
19189;SDS011;9727;50.200;19.038;2023-12-20T05:43:06;19.97;;;13.53;;
19189;SDS011;9727;50.200;19.038;2023-12-20T05:45:34;21.63;;;12.37;;
19189;SDS011;9727;50.200;19.038;2023-12-20T05:48:01;21.70;;;13.10;;
19189;SDS011;9727;50.200;19.038;2023-12-20T05:50:28;22.07;;;13.13;;
19189;SDS011;9727;50.200;19.038;2023-12-20T05:52:58;22.57;;;12.77;;
19189;SDS011;9727;50.200;19.038;2023-12-20T05:55:25;19.43;;;12.93;;
19189;SDS011;9727;50.200;19.038;2023-12-20T05:57:51;19.87;;;12.47;;
19189;SDS011;9727;50.200;19.038;2023-12-20T06:00:25;21.17;;;12.97;;
19189;SDS011;9727;50.200;19.038;2023-12-20T06:02:56;22.23;;;14.20;;
19189;SDS011;9727;50.200;19.038;2023-12-20T06:05:23;22.20;;;13.77;;
19189;SDS011;9727;50.200;19.038;2023-12-20T06:07:58;21.33;;;13.17;;
19189;SDS011;9727;50.200;19.038;2023-12-20T06:10:28;23.33;;;13.73;;
19189;SDS011;9727;50.200;19.038;2023-12-20T06:13:01;24.30;;;14.37;;
19189;SDS011;9727;50.200;19.038;2023-12-20T06:15:29;23.20;;;13.67;;
19189;SDS011;9727;50.200;19.038;2023-12-20T06:18:05;23.60;;;13.33;;
19189;SDS011;9727;50.200;19.038;2023-12-20T06:20:31;21.30;;;13.57;;
19189;SDS011;9727;50.200;19.038;2023-12-20T06:22:58;24.57;;;13.77;;
19189;SDS011;9727;50.200;19.038;2023-12-20T06:25:25;21.93;;;12.97;;
19189;SDS011;9727;50.200;19.038;2023-12-20T06:27:52;21.47;;;13.67;;
19189;SDS011;9727;50.200;19.038;2023-12-20T06:30:26;19.07;;;12.63;;
19189;SDS011;9727;50.200;19.038;2023-12-20T06:32:56;22.27;;;12.67;;
19189;SDS011;9727;50.200;19.038;2023-12-20T06:35:26;20.93;;;12.80;;
19189;SDS011;9727;50.200;19.038;2023-12-20T06:37:56;23.77;;;13.37;;
19189;SDS011;9727;50.200;19.038;2023-12-20T06:40:23;22.10;;;12.50;;
19189;SDS011;9727;50.200;19.038;2023-12-20T06:42:50;22.33;;;13.40;;
19189;SDS011;9727;50.200;19.038;2023-12-20T06:45:21;20.10;;;12.40;;
19189;SDS011;9727;50.200;19.038;2023-12-20T06:47:48;23.37;;;13.50;;
19189;SDS011;9727;50.200;19.038;2023-12-20T06:50:14;21.97;;;13.13;;
19189;SDS011;9727;50.200;19.038;2023-12-20T06:52:52;21.03;;;12.40;;
19189;SDS011;9727;50.200;19.038;2023-12-20T06:58:30;22.87;;;13.40;;
19189;SDS011;9727;50.200;19.038;2023-12-20T07:01:05;22.90;;;13.57;;
19189;SDS011;9727;50.200;19.038;2023-12-20T07:03:31;25.10;;;12.90;;
19189;SDS011;9727;50.200;19.038;2023-12-20T07:06:00;22.93;;;13.60;;
19189;SDS011;9727;50.200;19.038;2023-12-20T07:08:29;22.47;;;14.17;;
19189;SDS011;9727;50.200;19.038;2023-12-20T07:10:59;23.77;;;14.37;;
19189;SDS011;9727;50.200;19.038;2023-12-20T07:13:32;25.23;;;14.27;;
19189;SDS011;9727;50.200;19.038;2023-12-20T07:16:30;25.07;;;14.37;;
19189;SDS011;9727;50.200;19.038;2023-12-20T07:18:59;25.53;;;14.43;;
19189;SDS011;9727;50.200;19.038;2023-12-20T07:21:27;24.90;;;14.20;;
19189;SDS011;9727;50.200;19.038;2023-12-20T07:27:02;27.10;;;15.57;;
19189;SDS011;9727;50.200;19.038;2023-12-20T07:29:38;25.77;;;15.77;;
19189;SDS011;9727;50.200;19.038;2023-12-20T07:32:06;26.53;;;16.63;;
19189;SDS011;9727;50.200;19.038;2023-12-20T07:34:36;30.10;;;15.67;;
19189;SDS011;9727;50.200;19.038;2023-12-20T07:37:04;24.60;;;14.80;;
19189;SDS011;9727;50.200;19.038;2023-12-20T07:39:31;25.70;;;14.57;;
19189;SDS011;9727;50.200;19.038;2023-12-20T07:41:58;22.83;;;14.07;;
19189;SDS011;9727;50.200;19.038;2023-12-20T07:44:26;27.83;;;15.30;;
19189;SDS011;9727;50.200;19.038;2023-12-20T07:47:03;24.30;;;14.97;;
19189;SDS011;9727;50.200;19.038;2023-12-20T07:49:30;24.83;;;15.07;;
19189;SDS011;9727;50.200;19.038;2023-12-20T07:52:03;26.40;;;15.10;;
19189;SDS011;9727;50.200;19.038;2023-12-20T07:54:30;23.47;;;15.17;;
19189;SDS011;9727;50.200;19.038;2023-12-20T07:56:57;25.83;;;15.03;;
19189;SDS011;9727;50.200;19.038;2023-12-20T07:59:34;25.07;;;14.93;;
19189;SDS011;9727;50.200;19.038;2023-12-20T08:02:04;23.20;;;14.80;;
19189;SDS011;9727;50.200;19.038;2023-12-20T08:04:31;30.07;;;15.43;;
19189;SDS011;9727;50.200;19.038;2023-12-20T08:07:04;24.93;;;14.17;;
19189;SDS011;9727;50.200;19.038;2023-12-20T08:09:37;29.73;;;14.60;;
19189;SDS011;9727;50.200;19.038;2023-12-20T08:12:12;26.83;;;14.77;;
19189;SDS011;9727;50.200;19.038;2023-12-20T08:14:46;23.70;;;14.10;;
19189;SDS011;9727;50.200;19.038;2023-12-20T08:17:14;24.23;;;13.90;;
19189;SDS011;9727;50.200;19.038;2023-12-20T08:19:51;23.43;;;13.70;;
19189;SDS011;9727;50.200;19.038;2023-12-20T08:22:21;23.23;;;13.93;;
19189;SDS011;9727;50.200;19.038;2023-12-20T08:24:48;21.83;;;13.77;;
19189;SDS011;9727;50.200;19.038;2023-12-20T08:27:20;21.60;;;12.97;;
19189;SDS011;9727;50.200;19.038;2023-12-20T08:29:48;21.93;;;13.60;;
19189;SDS011;9727;50.200;19.038;2023-12-20T08:32:21;20.00;;;13.10;;
19189;SDS011;9727;50.200;19.038;2023-12-20T08:34:48;20.13;;;13.67;;
19189;SDS011;9727;50.200;19.038;2023-12-20T08:37:17;24.63;;;14.10;;
19189;SDS011;9727;50.200;19.038;2023-12-20T08:39:51;23.17;;;14.30;;
19189;SDS011;9727;50.200;19.038;2023-12-20T08:42:35;25.77;;;13.93;;
19189;SDS011;9727;50.200;19.038;2023-12-20T08:45:09;22.10;;;13.83;;
19189;SDS011;9727;50.200;19.038;2023-12-20T08:47:36;20.57;;;13.83;;
19189;SDS011;9727;50.200;19.038;2023-12-20T08:50:09;21.17;;;13.67;;
19189;SDS011;9727;50.200;19.038;2023-12-20T08:52:36;23.67;;;13.90;;
19189;SDS011;9727;50.200;19.038;2023-12-20T08:55:04;24.43;;;14.83;;
19189;SDS011;9727;50.200;19.038;2023-12-20T08:57:31;23.10;;;14.97;;
19189;SDS011;9727;50.200;19.038;2023-12-20T08:59:59;22.73;;;14.47;;
19189;SDS011;9727;50.200;19.038;2023-12-20T09:02:27;25.93;;;14.90;;
19189;SDS011;9727;50.200;19.038;2023-12-20T09:04:57;20.40;;;13.93;;
19189;SDS011;9727;50.200;19.038;2023-12-20T09:07:27;23.57;;;14.80;;
19189;SDS011;9727;50.200;19.038;2023-12-20T09:09:57;25.03;;;15.10;;
19189;SDS011;9727;50.200;19.038;2023-12-20T09:12:30;23.83;;;15.10;;
19189;SDS011;9727;50.200;19.038;2023-12-20T09:14:56;24.63;;;15.53;;
19189;SDS011;9727;50.200;19.038;2023-12-20T09:17:23;27.93;;;16.67;;
19189;SDS011;9727;50.200;19.038;2023-12-20T09:19:51;26.43;;;16.77;;
19189;SDS011;9727;50.200;19.038;2023-12-20T09:22:22;29.53;;;17.43;;
19189;SDS011;9727;50.200;19.038;2023-12-20T09:24:49;28.47;;;17.03;;
19189;SDS011;9727;50.200;19.038;2023-12-20T09:27:19;27.87;;;17.60;;
19189;SDS011;9727;50.200;19.038;2023-12-20T09:29:46;27.60;;;16.40;;
19189;SDS011;9727;50.200;19.038;2023-12-20T09:32:26;28.10;;;17.00;;
19189;SDS011;9727;50.200;19.038;2023-12-20T09:34:59;26.23;;;17.03;;
19189;SDS011;9727;50.200;19.038;2023-12-20T09:37:26;27.93;;;16.30;;
19189;SDS011;9727;50.200;19.038;2023-12-20T09:39:58;25.77;;;16.50;;
19189;SDS011;9727;50.200;19.038;2023-12-20T09:42:29;28.97;;;16.77;;
19189;SDS011;9727;50.200;19.038;2023-12-20T09:44:59;26.30;;;16.57;;
19189;SDS011;9727;50.200;19.038;2023-12-20T09:47:35;28.97;;;18.07;;
19189;SDS011;9727;50.200;19.038;2023-12-20T09:50:08;28.67;;;18.43;;
19189;SDS011;9727;50.200;19.038;2023-12-20T09:52:36;29.60;;;18.03;;
19189;SDS011;9727;50.200;19.038;2023-12-20T09:55:04;30.17;;;19.33;;
19189;SDS011;9727;50.200;19.038;2023-12-20T09:57:31;30.63;;;18.90;;
19189;SDS011;9727;50.200;19.038;2023-12-20T09:59:58;31.70;;;19.57;;
19189;SDS011;9727;50.200;19.038;2023-12-20T10:02:25;33.00;;;20.00;;
19189;SDS011;9727;50.200;19.038;2023-12-20T10:04:53;34.03;;;20.27;;
19189;SDS011;9727;50.200;19.038;2023-12-20T10:07:26;34.50;;;20.33;;
19189;SDS011;9727;50.200;19.038;2023-12-20T10:09:52;35.67;;;21.17;;
19189;SDS011;9727;50.200;19.038;2023-12-20T10:12:22;32.53;;;19.63;;
19189;SDS011;9727;50.200;19.038;2023-12-20T10:14:49;34.10;;;20.83;;
19189;SDS011;9727;50.200;19.038;2023-12-20T10:17:19;35.50;;;20.40;;
19189;SDS011;9727;50.200;19.038;2023-12-20T10:19:48;32.87;;;18.97;;
19189;SDS011;9727;50.200;19.038;2023-12-20T10:22:15;33.07;;;19.27;;
19189;SDS011;9727;50.200;19.038;2023-12-20T10:24:47;33.83;;;20.67;;
19189;SDS011;9727;50.200;19.038;2023-12-20T10:27:14;31.07;;;18.87;;
19189;SDS011;9727;50.200;19.038;2023-12-20T10:29:47;32.87;;;18.40;;
19189;SDS011;9727;50.200;19.038;2023-12-20T10:32:23;30.03;;;18.53;;
19189;SDS011;9727;50.200;19.038;2023-12-20T10:34:50;30.07;;;17.83;;
19189;SDS011;9727;50.200;19.038;2023-12-20T10:37:23;28.97;;;17.87;;
19189;SDS011;9727;50.200;19.038;2023-12-20T10:39:52;29.10;;;17.50;;
19189;SDS011;9727;50.200;19.038;2023-12-20T10:42:32;30.87;;;18.67;;
19189;SDS011;9727;50.200;19.038;2023-12-20T10:44:59;28.13;;;17.13;;
19189;SDS011;9727;50.200;19.038;2023-12-20T10:47:28;28.23;;;16.80;;
19189;SDS011;9727;50.200;19.038;2023-12-20T10:49:58;28.53;;;17.10;;
19189;SDS011;9727;50.200;19.038;2023-12-20T10:52:25;26.13;;;17.47;;
19189;SDS011;9727;50.200;19.038;2023-12-20T10:54:57;28.03;;;17.77;;
19189;SDS011;9727;50.200;19.038;2023-12-20T11:00:22;27.67;;;18.00;;
19189;SDS011;9727;50.200;19.038;2023-12-20T11:02:49;28.43;;;16.90;;
19189;SDS011;9727;50.200;19.038;2023-12-20T11:05:25;30.03;;;17.90;;
19189;SDS011;9727;50.200;19.038;2023-12-20T11:07:59;28.73;;;17.60;;
19189;SDS011;9727;50.200;19.038;2023-12-20T11:10:43;32.00;;;18.37;;
19189;SDS011;9727;50.200;19.038;2023-12-20T11:13:22;27.47;;;17.37;;
19189;SDS011;9727;50.200;19.038;2023-12-20T11:15:49;26.73;;;17.53;;
19189;SDS011;9727;50.200;19.038;2023-12-20T11:18:28;31.43;;;18.13;;
19189;SDS011;9727;50.200;19.038;2023-12-20T11:21:00;31.57;;;18.47;;
19189;SDS011;9727;50.200;19.038;2023-12-20T11:23:32;28.37;;;17.87;;
19189;SDS011;9727;50.200;19.038;2023-12-20T11:26:08;27.80;;;17.20;;
19189;SDS011;9727;50.200;19.038;2023-12-20T11:28:35;28.07;;;18.50;;
19189;SDS011;9727;50.200;19.038;2023-12-20T11:31:05;30.07;;;18.07;;
19189;SDS011;9727;50.200;19.038;2023-12-20T11:39:21;29.10;;;18.33;;
19189;SDS011;9727;50.200;19.038;2023-12-20T11:44:35;28.10;;;18.00;;
19189;SDS011;9727;50.200;19.038;2023-12-20T11:47:05;31.23;;;18.73;;
19189;SDS011;9727;50.200;19.038;2023-12-20T11:49:33;28.63;;;17.43;;
19189;SDS011;9727;50.200;19.038;2023-12-20T11:52:24;26.43;;;17.10;;
19189;SDS011;9727;50.200;19.038;2023-12-20T11:54:57;29.97;;;18.20;;
19189;SDS011;9727;50.200;19.038;2023-12-20T11:57:24;31.90;;;18.40;;
19189;SDS011;9727;50.200;19.038;2023-12-20T12:02:41;30.73;;;18.97;;
19189;SDS011;9727;50.200;19.038;2023-12-20T12:05:11;29.37;;;17.90;;
19189;SDS011;9727;50.200;19.038;2023-12-20T12:07:50;30.00;;;18.63;;
19189;SDS011;9727;50.200;19.038;2023-12-20T12:10:21;31.03;;;18.33;;
19189;SDS011;9727;50.200;19.038;2023-12-20T12:12:51;31.63;;;18.13;;
19189;SDS011;9727;50.200;19.038;2023-12-20T12:15:24;28.40;;;17.30;;
19189;SDS011;9727;50.200;19.038;2023-12-20T12:18:01;29.87;;;17.87;;
19189;SDS011;9727;50.200;19.038;2023-12-20T12:20:30;28.73;;;17.90;;
19189;SDS011;9727;50.200;19.038;2023-12-20T12:22:57;30.83;;;16.50;;
19189;SDS011;9727;50.200;19.038;2023-12-20T12:25:24;27.13;;;15.90;;
19189;SDS011;9727;50.200;19.038;2023-12-20T12:27:57;23.87;;;15.33;;
19189;SDS011;9727;50.200;19.038;2023-12-20T12:30:24;23.93;;;13.93;;
19189;SDS011;9727;50.200;19.038;2023-12-20T12:32:57;24.43;;;13.97;;
19189;SDS011;9727;50.200;19.038;2023-12-20T12:35:28;21.50;;;12.87;;
19189;SDS011;9727;50.200;19.038;2023-12-20T12:37:58;21.83;;;12.47;;
19189;SDS011;9727;50.200;19.038;2023-12-20T12:40:25;22.60;;;12.53;;
19189;SDS011;9727;50.200;19.038;2023-12-20T12:42:52;21.53;;;12.20;;
19189;SDS011;9727;50.200;19.038;2023-12-20T12:45:23;20.47;;;12.30;;
19189;SDS011;9727;50.200;19.038;2023-12-20T12:47:50;21.67;;;12.27;;
19189;SDS011;9727;50.200;19.038;2023-12-20T12:50:28;22.83;;;12.43;;
19189;SDS011;9727;50.200;19.038;2023-12-20T12:53:00;21.13;;;13.23;;
19189;SDS011;9727;50.200;19.038;2023-12-20T12:55:27;28.17;;;15.57;;
19189;SDS011;9727;50.200;19.038;2023-12-20T12:57:55;26.43;;;15.47;;
19189;SDS011;9727;50.200;19.038;2023-12-20T13:00:22;25.20;;;14.53;;
19189;SDS011;9727;50.200;19.038;2023-12-20T13:02:50;27.67;;;16.63;;
19189;SDS011;9727;50.200;19.038;2023-12-20T13:05:22;26.50;;;16.07;;
19189;SDS011;9727;50.200;19.038;2023-12-20T13:07:49;24.93;;;16.20;;
19189;SDS011;9727;50.200;19.038;2023-12-20T13:13:02;23.23;;;14.57;;
19189;SDS011;9727;50.200;19.038;2023-12-20T13:15:32;26.13;;;15.40;;
19189;SDS011;9727;50.200;19.038;2023-12-20T13:17:59;22.50;;;14.63;;
19189;SDS011;9727;50.200;19.038;2023-12-20T13:20:30;23.47;;;15.37;;
19189;SDS011;9727;50.200;19.038;2023-12-20T13:22:57;23.57;;;14.77;;
19189;SDS011;9727;50.200;19.038;2023-12-20T13:25:24;22.37;;;14.30;;
19189;SDS011;9727;50.200;19.038;2023-12-20T13:28:00;25.43;;;14.83;;
19189;SDS011;9727;50.200;19.038;2023-12-20T13:30:29;25.53;;;14.77;;
19189;SDS011;9727;50.200;19.038;2023-12-20T13:32:59;25.40;;;14.03;;
19189;SDS011;9727;50.200;19.038;2023-12-20T13:35:26;23.50;;;14.43;;
19189;SDS011;9727;50.200;19.038;2023-12-20T13:38:01;22.53;;;14.27;;
19189;SDS011;9727;50.200;19.038;2023-12-20T13:40:29;25.40;;;14.47;;
19189;SDS011;9727;50.200;19.038;2023-12-20T13:42:58;24.27;;;14.57;;
19189;SDS011;9727;50.200;19.038;2023-12-20T13:45:25;25.73;;;16.37;;
19189;SDS011;9727;50.200;19.038;2023-12-20T13:50:40;29.63;;;16.10;;
19189;SDS011;9727;50.200;19.038;2023-12-20T13:53:08;24.37;;;15.07;;
19189;SDS011;9727;50.200;19.038;2023-12-20T13:55:34;25.77;;;15.40;;
19189;SDS011;9727;50.200;19.038;2023-12-20T13:58:03;25.80;;;15.93;;
19189;SDS011;9727;50.200;19.038;2023-12-20T14:00:31;22.27;;;14.73;;
19189;SDS011;9727;50.200;19.038;2023-12-20T14:06:01;25.40;;;16.27;;
19189;SDS011;9727;50.200;19.038;2023-12-20T14:08:30;25.87;;;17.07;;
19189;SDS011;9727;50.200;19.038;2023-12-20T14:10:57;25.80;;;16.43;;
19189;SDS011;9727;50.200;19.038;2023-12-20T14:13:24;25.70;;;18.20;;
19189;SDS011;9727;50.200;19.038;2023-12-20T14:15:50;28.83;;;18.23;;
19189;SDS011;9727;50.200;19.038;2023-12-20T14:18:21;25.07;;;16.73;;
19189;SDS011;9727;50.200;19.038;2023-12-20T14:20:48;35.47;;;18.97;;
19189;SDS011;9727;50.200;19.038;2023-12-20T14:23:25;25.30;;;15.93;;
19189;SDS011;9727;50.200;19.038;2023-12-20T14:25:56;34.97;;;20.20;;
19189;SDS011;9727;50.200;19.038;2023-12-20T14:28:23;30.73;;;19.93;;
19189;SDS011;9727;50.200;19.038;2023-12-20T14:30:50;29.00;;;18.37;;
19189;SDS011;9727;50.200;19.038;2023-12-20T14:33:20;31.33;;;19.40;;
19189;SDS011;9727;50.200;19.038;2023-12-20T14:35:50;31.07;;;20.00;;
19189;SDS011;9727;50.200;19.038;2023-12-20T14:38:23;32.07;;;19.30;;
19189;SDS011;9727;50.200;19.038;2023-12-20T14:41:09;31.23;;;18.67;;
19189;SDS011;9727;50.200;19.038;2023-12-20T14:43:35;25.73;;;17.27;;
19189;SDS011;9727;50.200;19.038;2023-12-20T14:46:03;28.53;;;18.07;;
19189;SDS011;9727;50.200;19.038;2023-12-20T14:48:30;26.87;;;17.57;;
19189;SDS011;9727;50.200;19.038;2023-12-20T14:51:03;29.30;;;18.03;;
19189;SDS011;9727;50.200;19.038;2023-12-20T14:53:31;27.37;;;17.63;;
19189;SDS011;9727;50.200;19.038;2023-12-20T14:56:01;31.33;;;18.63;;
19189;SDS011;9727;50.200;19.038;2023-12-20T14:58:30;30.90;;;18.67;;
19189;SDS011;9727;50.200;19.038;2023-12-20T15:00:58;29.10;;;19.13;;
19189;SDS011;9727;50.200;19.038;2023-12-20T15:03:28;34.17;;;20.33;;
19189;SDS011;9727;50.200;19.038;2023-12-20T15:05:58;36.10;;;21.77;;
19189;SDS011;9727;50.200;19.038;2023-12-20T15:08:26;35.53;;;22.33;;
19189;SDS011;9727;50.200;19.038;2023-12-20T15:10:57;31.07;;;20.23;;
19189;SDS011;9727;50.200;19.038;2023-12-20T15:13:25;36.50;;;21.03;;